DLH178 EDDH-EKCH
Flight info
| Callsign | DLH178 |
|---|---|
| Flight time | 0h 30m |
| Altitude | 23000 |
| Route | LUGEG3G LUGEG P605 GESKA Z711 MONAK |
| Aircraft | A320/M-SDE3FGHIRWY/LB1 |
Departure
| Time | 2026-05-07 17:14 |
|---|---|
| Airport | Hamburg Helmut Schmidt Airport (EDDH) |
Arrival
| Time | 2026-05-07 17:45 |
|---|---|
| Airport | Copenhagen Kastrup Airport (EKCH) |
| Time | Latitude | Longitude | Altitude | Speed | Heading |
|---|---|---|---|---|---|
| 2026-05-07 16:46 | 53.63373 | 10.00337 | 49 ft | 0 kts | 86° |
| 2026-05-07 16:47 | 53.63449 | 10.00312 | 47 ft | 0 kts | 88° |
| 2026-05-07 16:47 | 53.63415 | 10.00335 | 49 ft | 0 kts | 85° |
| 2026-05-07 17:04 | 53.63415 | 10.00334 | 48 ft | 1 kts | 85° |
| 2026-05-07 17:04 | 53.63413 | 10.00296 | 44 ft | 4 kts | 85° |
| 2026-05-07 17:04 | 53.63410 | 10.00250 | 46 ft | 4 kts | 85° |
| 2026-05-07 17:04 | 53.63408 | 10.00213 | 48 ft | 4 kts | 87° |
| 2026-05-07 17:05 | 53.63413 | 10.00172 | 45 ft | 4 kts | 136° |
| 2026-05-07 17:05 | 53.63435 | 10.00154 | 48 ft | 3 kts | 175° |
| 2026-05-07 17:05 | 53.63418 | 10.00156 | 46 ft | 4 kts | 175° |
| 2026-05-07 17:05 | 53.63404 | 10.00158 | 48 ft | 0 kts | 175° |
| 2026-05-07 17:10 | 53.63377 | 10.00161 | 46 ft | 7 kts | 176° |
| 2026-05-07 17:10 | 53.63299 | 10.00170 | 48 ft | 14 kts | 176° |
| 2026-05-07 17:11 | 53.63189 | 10.00182 | 48 ft | 17 kts | 175° |
| 2026-05-07 17:11 | 53.63084 | 10.00189 | 47 ft | 13 kts | 191° |
| 2026-05-07 17:11 | 53.63014 | 10.00125 | 48 ft | 6 kts | 212° |
| 2026-05-07 17:11 | 53.63008 | 10.00119 | 48 ft | 3 kts | 212° |
| 2026-05-07 17:12 | 53.62956 | 10.00063 | 48 ft | 15 kts | 213° |
| 2026-05-07 17:12 | 53.62899 | 9.99923 | 48 ft | 14 kts | 243° |
| 2026-05-07 17:12 | 53.62866 | 9.99762 | 45 ft | 14 kts | 284° |
| 2026-05-07 17:12 | 53.62909 | 9.99707 | 45 ft | 0 kts | 333° |
| 2026-05-07 17:13 | 53.62922 | 9.99696 | 45 ft | 18 kts | 333° |
| 2026-05-07 17:13 | 53.63290 | 9.99380 | 47 ft | 96 kts | 333° |
| 2026-05-07 17:13 | 53.64069 | 9.98706 | 51 ft | 153 kts | 333° |
| 2026-05-07 17:14 | 53.65047 | 9.97839 | 579 ft | 157 kts | 333° |
| 2026-05-07 17:14 | 53.66028 | 9.96988 | 1254 ft | 161 kts | 337° |
| 2026-05-07 17:14 | 53.67085 | 9.96096 | 1771 ft | 180 kts | 338° |
| 2026-05-07 17:14 | 53.68285 | 9.95098 | 2213 ft | 204 kts | 340° |
| 2026-05-07 17:15 | 53.69718 | 9.94659 | 2787 ft | 214 kts | 4° |
| 2026-05-07 17:15 | 53.71216 | 9.94695 | 3700 ft | 216 kts | 4° |
| 2026-05-07 17:15 | 53.72703 | 9.95015 | 4588 ft | 216 kts | 24° |
| 2026-05-07 17:15 | 53.73928 | 9.96430 | 5281 ft | 225 kts | 52° |
| 2026-05-07 17:16 | 53.74758 | 9.98848 | 5745 ft | 247 kts | 65° |
| 2026-05-07 17:16 | 53.75516 | 10.01503 | 6484 ft | 258 kts | 65° |
| 2026-05-07 17:16 | 53.76297 | 10.04269 | 7325 ft | 264 kts | 65° |
| 2026-05-07 17:16 | 53.77099 | 10.07100 | 8191 ft | 270 kts | 64° |
| 2026-05-07 17:17 | 53.77922 | 10.09991 | 9042 ft | 276 kts | 64° |
| 2026-05-07 17:17 | 53.78769 | 10.12953 | 9810 ft | 284 kts | 64° |
| 2026-05-07 17:17 | 53.79639 | 10.15985 | 10046 ft | 287 kts | 63° |
| 2026-05-07 17:17 | 53.80540 | 10.19113 | 10102 ft | 312 kts | 63° |
| 2026-05-07 17:18 | 53.81542 | 10.22590 | 10109 ft | 345 kts | 63° |
| 2026-05-07 17:18 | 53.82634 | 10.26399 | 10109 ft | 371 kts | 63° |
| 2026-05-07 17:18 | 53.83772 | 10.30378 | 10105 ft | 378 kts | 64° |
| 2026-05-07 17:18 | 53.84914 | 10.34397 | 10879 ft | 372 kts | 64° |
| 2026-05-07 17:19 | 53.86011 | 10.38259 | 12353 ft | 354 kts | 64° |
| 2026-05-07 17:19 | 53.87051 | 10.41920 | 13879 ft | 335 kts | 64° |
| 2026-05-07 17:19 | 53.88030 | 10.45381 | 15245 ft | 315 kts | 64° |
| 2026-05-07 17:19 | 53.88949 | 10.48623 | 16624 ft | 295 kts | 64° |
| 2026-05-07 17:20 | 53.89810 | 10.51665 | 17830 ft | 281 kts | 64° |
| 2026-05-07 17:20 | 53.90653 | 10.54647 | 18598 ft | 281 kts | 64° |
| 2026-05-07 17:20 | 53.91501 | 10.57644 | 19189 ft | 283 kts | 64° |
| 2026-05-07 17:20 | 53.92357 | 10.60669 | 19764 ft | 286 kts | 63° |
| 2026-05-07 17:21 | 53.93252 | 10.63701 | 20320 ft | 289 kts | 60° |
| 2026-05-07 17:21 | 53.94310 | 10.66623 | 20863 ft | 292 kts | 54° |
| 2026-05-07 17:21 | 53.95544 | 10.69385 | 21401 ft | 295 kts | 48° |
| 2026-05-07 17:21 | 53.96930 | 10.71974 | 21940 ft | 298 kts | 45° |
| 2026-05-07 17:22 | 53.98360 | 10.74561 | 22492 ft | 302 kts | 45° |
| 2026-05-07 17:22 | 53.99803 | 10.77178 | 22991 ft | 308 kts | 45° |
| 2026-05-07 17:22 | 54.01310 | 10.79911 | 23098 ft | 326 kts | 45° |
| 2026-05-07 17:22 | 54.02909 | 10.82816 | 23121 ft | 347 kts | 45° |
| 2026-05-07 17:23 | 54.04607 | 10.85911 | 23111 ft | 367 kts | 46° |
| 2026-05-07 17:23 | 54.06394 | 10.89178 | 23112 ft | 387 kts | 46° |
| 2026-05-07 17:23 | 54.08268 | 10.92611 | 23112 ft | 405 kts | 46° |
| 2026-05-07 17:23 | 54.10229 | 10.96206 | 23117 ft | 422 kts | 46° |
| 2026-05-07 17:24 | 54.12261 | 10.99934 | 23120 ft | 436 kts | 46° |
| 2026-05-07 17:24 | 54.14350 | 11.03787 | 23118 ft | 449 kts | 46° |
| 2026-05-07 17:24 | 54.16490 | 11.07756 | 23119 ft | 459 kts | 46° |
| 2026-05-07 17:24 | 54.18671 | 11.11814 | 23120 ft | 469 kts | 47° |
| 2026-05-07 17:25 | 54.20856 | 11.15893 | 23126 ft | 473 kts | 47° |
| 2026-05-07 17:25 | 54.23079 | 11.20049 | 23121 ft | 475 kts | 47° |
| 2026-05-07 17:25 | 54.25310 | 11.24223 | 23121 ft | 475 kts | 47° |
| 2026-05-07 17:25 | 54.27533 | 11.28392 | 23120 ft | 475 kts | 47° |
| 2026-05-07 17:26 | 54.29760 | 11.32572 | 23124 ft | 475 kts | 47° |
| 2026-05-07 17:26 | 54.31981 | 11.36745 | 23118 ft | 475 kts | 47° |
| 2026-05-07 17:26 | 54.34204 | 11.40928 | 23124 ft | 475 kts | 47° |
| 2026-05-07 17:26 | 54.36422 | 11.45113 | 23122 ft | 474 kts | 47° |
| 2026-05-07 17:27 | 54.38638 | 11.49306 | 23119 ft | 474 kts | 47° |
| 2026-05-07 17:27 | 54.40854 | 11.53505 | 23114 ft | 474 kts | 47° |
| 2026-05-07 17:27 | 54.43068 | 11.57698 | 23126 ft | 474 kts | 47° |
| 2026-05-07 17:27 | 54.45284 | 11.61890 | 23127 ft | 474 kts | 47° |
| 2026-05-07 17:28 | 54.47497 | 11.66075 | 23127 ft | 474 kts | 47° |
| 2026-05-07 17:28 | 54.49715 | 11.70278 | 23129 ft | 474 kts | 47° |
| 2026-05-07 17:28 | 54.51928 | 11.74482 | 23133 ft | 474 kts | 47° |
| 2026-05-07 17:28 | 54.54138 | 11.78688 | 23126 ft | 474 kts | 47° |
| 2026-05-07 17:29 | 54.56345 | 11.82894 | 22934 ft | 473 kts | 47° |
| 2026-05-07 17:29 | 54.58541 | 11.87089 | 22662 ft | 471 kts | 47° |
| 2026-05-07 17:29 | 54.60760 | 11.91233 | 22390 ft | 468 kts | 44° |
| 2026-05-07 17:29 | 54.63221 | 11.94880 | 22122 ft | 466 kts | 36° |
| 2026-05-07 17:30 | 54.65894 | 11.98011 | 21735 ft | 461 kts | 33° |
| 2026-05-07 17:30 | 54.68550 | 12.01062 | 20819 ft | 456 kts | 33° |
| 2026-05-07 17:30 | 54.71169 | 12.04085 | 19898 ft | 447 kts | 33° |
| 2026-05-07 17:30 | 54.73708 | 12.07033 | 19078 ft | 432 kts | 33° |
| 2026-05-07 17:31 | 54.76165 | 12.09893 | 18284 ft | 419 kts | 33° |
| 2026-05-07 17:31 | 54.78577 | 12.12706 | 17450 ft | 417 kts | 33° |
| 2026-05-07 17:31 | 54.80972 | 12.15500 | 16734 ft | 414 kts | 33° |
| 2026-05-07 17:31 | 54.83356 | 12.18274 | 16014 ft | 412 kts | 33° |
| 2026-05-07 17:32 | 54.85724 | 12.21032 | 15311 ft | 409 kts | 33° |
| 2026-05-07 17:32 | 54.88082 | 12.23782 | 14630 ft | 407 kts | 33° |
| 2026-05-07 17:32 | 54.90422 | 12.26521 | 13968 ft | 404 kts | 33° |
| 2026-05-07 17:32 | 54.91973 | 12.28287 | 13561 ft | 400 kts | 30° |
| 2026-05-07 17:33 | 54.95352 | 12.30431 | 13355 ft | 376 kts | 9° |
| 2026-05-07 17:33 | 54.97876 | 12.30850 | 13189 ft | 356 kts | 4° |
| 2026-05-07 17:33 | 55.00325 | 12.31158 | 12866 ft | 347 kts | 4° |
| 2026-05-07 17:33 | 55.02703 | 12.31436 | 12250 ft | 338 kts | 4° |
| 2026-05-07 17:34 | 55.05007 | 12.31694 | 11589 ft | 327 kts | 4° |
| 2026-05-07 17:34 | 55.07228 | 12.31940 | 11032 ft | 314 kts | 4° |
| 2026-05-07 17:34 | 55.09381 | 12.32181 | 10416 ft | 306 kts | 4° |
| 2026-05-07 17:34 | 55.11436 | 12.32414 | 10242 ft | 284 kts | 5° |
| 2026-05-07 17:35 | 55.13416 | 12.32648 | 10120 ft | 285 kts | 5° |
| 2026-05-07 17:35 | 55.15374 | 12.32886 | 9665 ft | 287 kts | 5° |
| 2026-05-07 17:35 | 55.17392 | 12.33134 | 9083 ft | 285 kts | 5° |
| 2026-05-07 17:35 | 55.19327 | 12.33368 | 8530 ft | 280 kts | 5° |
| 2026-05-07 17:36 | 55.21259 | 12.33598 | 7929 ft | 277 kts | 5° |
| 2026-05-07 17:36 | 55.23191 | 12.33829 | 7338 ft | 273 kts | 4° |
| 2026-05-07 17:36 | 55.25050 | 12.34046 | 6768 ft | 270 kts | 4° |
| 2026-05-07 17:36 | 55.26912 | 12.34261 | 6169 ft | 266 kts | 4° |
| 2026-05-07 17:37 | 55.28749 | 12.34475 | 5578 ft | 263 kts | 4° |
| 2026-05-07 17:37 | 55.30542 | 12.34688 | 5397 ft | 258 kts | 4° |
| 2026-05-07 17:37 | 55.32337 | 12.34903 | 5269 ft | 259 kts | 4° |
| 2026-05-07 17:37 | 55.34131 | 12.35117 | 5134 ft | 258 kts | 4° |
| 2026-05-07 17:38 | 55.35342 | 12.35261 | 4967 ft | 259 kts | 4° |
| 2026-05-07 17:38 | 55.37128 | 12.35474 | 4586 ft | 256 kts | 4° |
| 2026-05-07 17:38 | 55.38894 | 12.35684 | 4365 ft | 253 kts | 4° |
| 2026-05-07 17:38 | 55.40662 | 12.35895 | 4299 ft | 255 kts | 4° |
| 2026-05-07 17:39 | 55.42406 | 12.36150 | 4203 ft | 252 kts | 10° |
| 2026-05-07 17:39 | 55.43990 | 12.37158 | 4079 ft | 228 kts | 31° |
| 2026-05-07 17:39 | 55.45187 | 12.38806 | 3926 ft | 212 kts | 40° |
| 2026-05-07 17:39 | 55.46279 | 12.40474 | 3513 ft | 209 kts | 39° |
| 2026-05-07 17:40 | 55.47357 | 12.42120 | 3201 ft | 201 kts | 39° |
| 2026-05-07 17:40 | 55.48390 | 12.43703 | 2921 ft | 193 kts | 40° |
| 2026-05-07 17:40 | 55.49388 | 12.45232 | 2686 ft | 185 kts | 39° |
| 2026-05-07 17:40 | 55.50333 | 12.46681 | 2412 ft | 174 kts | 39° |
| 2026-05-07 17:41 | 55.51210 | 12.48027 | 2214 ft | 160 kts | 39° |
| 2026-05-07 17:41 | 55.52026 | 12.49279 | 1965 ft | 150 kts | 39° |
| 2026-05-07 17:41 | 55.52782 | 12.50441 | 1770 ft | 140 kts | 39° |
| 2026-05-07 17:41 | 55.53505 | 12.51551 | 1583 ft | 136 kts | 39° |
| 2026-05-07 17:42 | 55.54216 | 12.52644 | 1399 ft | 135 kts | 39° |
| 2026-05-07 17:42 | 55.54922 | 12.53729 | 1212 ft | 134 kts | 39° |
| 2026-05-07 17:42 | 55.55626 | 12.54813 | 1032 ft | 134 kts | 40° |
| 2026-05-07 17:42 | 55.56330 | 12.55898 | 827 ft | 135 kts | 39° |
| 2026-05-07 17:43 | 55.57043 | 12.56996 | 637 ft | 137 kts | 41° |
| 2026-05-07 17:43 | 55.57769 | 12.58115 | 440 ft | 140 kts | 42° |
| 2026-05-07 17:43 | 55.58505 | 12.59251 | 258 ft | 142 kts | 43° |
| 2026-05-07 17:43 | 55.59261 | 12.60380 | 84 ft | 142 kts | 43° |
| 2026-05-07 17:44 | 55.59954 | 12.61473 | 24 ft | 117 kts | 41° |
| 2026-05-07 17:44 | 55.60492 | 12.62313 | 25 ft | 91 kts | 42° |
| 2026-05-07 17:44 | 55.60928 | 12.62992 | 25 ft | 78 kts | 40° |
| 2026-05-07 17:44 | 55.61304 | 12.63572 | 26 ft | 59 kts | 42° |
| 2026-05-07 17:45 | 55.61523 | 12.63909 | 28 ft | 23 kts | 35° |
| 2026-05-07 17:45 | 55.61672 | 12.63948 | 28 ft | 9 kts | 357° |
| 2026-05-07 17:45 | 55.61674 | 12.63948 | 28 ft | 0 kts | 357° |
| 2026-05-07 17:46 | 55.61714 | 12.63945 | 25 ft | 8 kts | 358° |
| 2026-05-07 17:46 | 55.61772 | 12.63941 | 24 ft | 8 kts | 2° |
| 2026-05-07 17:47 | 55.61830 | 12.64006 | 24 ft | 11 kts | 40° |
| 2026-05-07 17:47 | 55.61886 | 12.64083 | 26 ft | 10 kts | 30° |
| 2026-05-07 17:47 | 55.61950 | 12.64136 | 24 ft | 12 kts | 25° |
| 2026-05-07 17:47 | 55.62032 | 12.64203 | 26 ft | 13 kts | 23° |
| 2026-05-07 17:48 | 55.62110 | 12.64267 | 24 ft | 12 kts | 25° |
| 2026-05-07 17:48 | 55.62186 | 12.64331 | 22 ft | 12 kts | 25° |
| 2026-05-07 17:48 | 55.62266 | 12.64388 | 22 ft | 12 kts | 16° |
| 2026-05-07 17:48 | 55.62347 | 12.64427 | 24 ft | 14 kts | 15° |
| 2026-05-07 17:49 | 55.62441 | 12.64462 | 24 ft | 13 kts | 16° |
| 2026-05-07 17:49 | 55.62516 | 12.64423 | 24 ft | 12 kts | 306° |
| 2026-05-07 17:49 | 55.62560 | 12.64311 | 24 ft | 11 kts | 306° |
| 2026-05-07 17:49 | 55.62617 | 12.64273 | 24 ft | 9 kts | 22° |
| 2026-05-07 17:50 | 55.62672 | 12.64316 | 24 ft | 8 kts | 20° |
| 2026-05-07 17:50 | 55.62716 | 12.64321 | 24 ft | 4 kts | 310° |
| 2026-05-07 17:50 | 55.62730 | 12.64284 | 24 ft | 3 kts | 302° |
| 2026-05-07 17:50 | 55.62734 | 12.64273 | 24 ft | 0 kts | 302° |